createdAt,value
2018-08-11T00:00:52.337Z,96037.13
2018-08-11T00:03:21.027Z,96045.55
2018-08-11T00:05:49.658Z,96043.48
2018-08-11T00:08:18.507Z,96040.62
2018-08-11T00:10:47.225Z,96042.12
2018-08-11T00:13:15.894Z,96038.03
2018-08-11T00:15:44.589Z,96040.39
2018-08-11T00:18:13.266Z,96047.08
2018-08-11T00:20:41.946Z,96044.25
2018-08-11T00:23:10.643Z,96049.56
2018-08-11T00:25:39.294Z,96045.13
2018-08-11T00:28:07.923Z,96039.09
2018-08-11T00:30:36.554Z,96041.49
2018-08-11T00:33:05.222Z,96040.81
2018-08-11T00:35:33.873Z,96043.92
2018-08-11T00:38:02.469Z,96043.50
2018-08-11T00:40:31.166Z,96040.91
2018-08-11T00:42:59.814Z,96035.88
2018-08-11T00:48:11.293Z,96036.95
2018-08-11T00:50:54.379Z,96034.73
2018-08-11T00:53:23.031Z,96036.59
2018-08-11T00:55:51.670Z,96031.56
2018-08-11T00:58:20.327Z,96029.49
2018-08-11T01:00:48.995Z,96030.72
2018-08-11T01:03:17.614Z,96034.95
2018-08-11T01:05:46.273Z,96035.24
2018-08-11T01:08:14.884Z,96028.50
2018-08-11T01:10:43.575Z,96017.50
2018-08-11T01:13:12.210Z,96013.40
2018-08-11T01:15:40.900Z,96014.57
2018-08-11T01:18:09.543Z,96014.84
2018-08-11T01:20:38.211Z,96020.97
2018-08-11T01:23:06.841Z,96015.57
2018-08-11T01:25:35.570Z,96014.15
2018-08-11T01:28:04.182Z,96007.61
2018-08-11T01:30:32.810Z,96016.88
2018-08-11T01:33:01.411Z,96012.27
2018-08-11T01:35:30.094Z,96014.35
2018-08-11T01:37:58.741Z,96014.78
2018-08-11T01:40:27.390Z,96006.59
2018-08-11T01:42:55.978Z,95999.77
2018-08-11T01:45:24.587Z,96003.23
2018-08-11T01:47:53.252Z,95996.61
2018-08-11T01:50:21.963Z,96000.05
2018-08-11T01:52:50.592Z,95996.55
2018-08-11T01:55:19.529Z,95996.33
2018-08-11T01:57:48.181Z,95989.64
2018-08-11T02:00:17.357Z,95991.16
2018-08-11T02:02:45.991Z,95990.02
2018-08-11T02:05:14.605Z,95991.86
2018-08-11T02:07:44.096Z,95993.74
2018-08-11T02:10:16.729Z,95988.14
2018-08-11T02:12:45.936Z,95991.16
2018-08-11T02:15:14.991Z,95988.85
2018-08-11T02:17:43.749Z,95984.62
2018-08-11T02:20:14.955Z,95981.98
2018-08-11T02:22:44.770Z,95985.84
2018-08-11T02:25:13.395Z,95982.48
2018-08-11T02:27:42.014Z,95977.52
2018-08-11T02:30:14.048Z,95987.15
2018-08-11T02:32:42.815Z,95984.45
2018-08-11T02:35:12.344Z,95983.59
2018-08-11T02:37:41.520Z,95981.14
2018-08-11T02:40:11.839Z,95978.36
2018-08-11T02:42:40.582Z,95975.31
2018-08-11T02:45:10.801Z,95979.13
2018-08-11T02:47:39.506Z,95978.98
2018-08-11T02:50:09.327Z,95982.14
2018-08-11T02:52:38.180Z,95973.53
2018-08-11T02:55:06.912Z,95971.69
2018-08-11T02:57:35.724Z,95971.83
2018-08-11T03:00:05.565Z,95972.54
2018-08-11T03:02:34.296Z,95970.80
2018-08-11T03:05:02.858Z,95975.27
2018-08-11T03:07:31.466Z,95975.83
2018-08-11T03:10:00.086Z,95981.72
2018-08-11T03:12:28.786Z,95981.23
2018-08-11T03:14:57.430Z,95981.65
2018-08-11T03:17:26.026Z,95980.56
2018-08-11T03:19:54.614Z,95971.73
2018-08-11T03:22:23.265Z,95971.44
2018-08-11T03:24:51.845Z,95975.00
2018-08-11T03:27:20.450Z,95804.34
2018-08-11T03:29:49.026Z,95964.47
2018-08-11T03:32:17.646Z,95970.29
2018-08-11T03:34:46.311Z,95964.31
2018-08-11T03:37:14.910Z,95974.22
2018-08-11T03:39:43.493Z,95974.50
2018-08-11T03:42:12.103Z,95964.95
2018-08-11T03:44:40.694Z,95975.86
2018-08-11T03:47:09.349Z,95967.82
2018-08-11T03:49:37.940Z,95975.14
2018-08-11T03:52:06.695Z,95970.39
2018-08-11T03:54:35.321Z,95974.54
2018-08-11T03:57:03.948Z,95982.88
2018-08-11T03:59:32.596Z,95976.72
2018-08-11T04:02:01.215Z,95973.72
2018-08-11T04:04:29.826Z,95981.21
2018-08-11T04:06:58.446Z,95977.97
2018-08-11T04:09:27.102Z,95977.03
2018-08-11T04:11:55.690Z,95982.77
2018-08-11T04:14:24.300Z,95986.52
2018-08-11T04:16:52.923Z,95981.78
2018-08-11T04:19:21.550Z,95987.89
2018-08-11T04:21:50.153Z,95986.88
2018-08-11T04:24:18.839Z,95989.05
2018-08-11T04:26:47.471Z,95984.44
2018-08-11T04:29:16.149Z,95988.67
2018-08-11T04:31:44.787Z,95984.39
2018-08-11T04:34:13.381Z,95988.80
2018-08-11T04:36:42.063Z,95997.96
2018-08-11T04:39:10.673Z,95988.25
2018-08-11T04:41:39.551Z,95993.77
2018-08-11T04:44:08.283Z,95993.81
2018-08-11T04:46:36.911Z,95991.69
2018-08-11T04:49:05.571Z,95990.95
2018-08-11T04:51:34.179Z,95987.80
2018-08-11T04:54:02.794Z,95990.38
2018-08-11T04:56:31.429Z,95987.27
2018-08-11T04:59:00.051Z,95990.58
2018-08-11T05:01:28.750Z,95989.84
2018-08-11T05:03:57.362Z,95988.71
2018-08-11T05:06:26.022Z,95994.19
2018-08-11T05:08:54.708Z,95985.83
2018-08-11T05:11:23.387Z,95987.34
2018-08-11T05:13:52.034Z,95989.14
2018-08-11T05:16:20.691Z,95986.64
2018-08-11T05:18:49.343Z,95987.84
2018-08-11T05:21:17.977Z,95984.50
2018-08-11T05:23:46.627Z,95987.68
2018-08-11T05:26:15.295Z,95990.05
2018-08-11T05:28:43.922Z,95984.55
2018-08-11T05:31:12.570Z,95987.27
2018-08-11T05:33:41.233Z,95979.21
2018-08-11T05:36:09.891Z,95978.83
2018-08-11T05:38:38.500Z,95982.06
2018-08-11T05:41:07.135Z,95974.89
2018-08-11T05:43:35.773Z,95973.17
2018-08-11T05:46:04.488Z,95973.97
2018-08-11T05:48:33.081Z,95966.91
2018-08-11T05:51:01.702Z,95970.98
2018-08-11T05:53:30.329Z,95977.05
2018-08-11T05:55:59.023Z,95976.94
2018-08-11T05:58:27.729Z,95975.63
2018-08-11T06:00:56.396Z,95979.48
2018-08-11T06:03:25.119Z,95977.94
2018-08-11T06:05:53.748Z,95978.98
2018-08-11T06:08:22.403Z,95974.38
2018-08-11T06:10:51.011Z,95967.17
2018-08-11T06:13:19.679Z,95969.81
2018-08-11T06:15:48.339Z,95969.42
2018-08-11T06:18:17.067Z,95968.33
2018-08-11T06:20:45.706Z,95969.42
2018-08-11T06:23:14.330Z,95972.36
2018-08-11T06:25:42.975Z,95976.67
2018-08-11T06:28:11.621Z,95974.06
2018-08-11T06:30:40.275Z,95964.67
2018-08-11T06:33:08.957Z,95955.84
2018-08-11T06:35:37.707Z,95960.98
2018-08-11T06:38:06.368Z,95960.86
2018-08-11T06:40:35.039Z,95954.07
2018-08-11T06:43:03.711Z,95953.49
2018-08-11T06:45:32.652Z,95950.38
2018-08-11T06:48:01.474Z,95947.33
2018-08-11T06:50:30.075Z,95952.55
2018-08-11T06:52:58.713Z,95951.22
2018-08-11T06:55:27.572Z,95946.72
2018-08-11T06:57:56.507Z,95948.26
2018-08-11T07:00:25.558Z,95947.05
2018-08-11T07:02:54.560Z,95951.72
2018-08-11T07:05:23.175Z,95942.95
2018-08-11T07:07:52.430Z,95945.22
2018-08-11T07:10:21.261Z,95934.45
2018-08-11T07:12:50.730Z,95947.04
2018-08-11T07:15:19.527Z,95940.91
2018-08-11T07:17:48.350Z,95940.91
2018-08-11T07:20:17.088Z,95948.80
2018-08-11T07:22:46.717Z,95944.66
2018-08-11T07:25:16.460Z,95942.88
2018-08-11T07:27:45.775Z,95938.55
2018-08-11T07:30:14.803Z,95949.33
2018-08-11T07:32:43.737Z,95942.72
2018-08-11T07:35:12.580Z,95935.15
2018-08-11T07:37:41.268Z,95937.22
2018-08-11T07:40:10.063Z,95942.44
2018-08-11T07:42:38.732Z,95942.89
2018-08-11T07:45:07.450Z,95939.66
2018-08-11T07:47:36.099Z,95935.97
2018-08-11T07:50:05.184Z,95930.25
2018-08-11T07:52:34.109Z,95933.03
2018-08-11T07:55:02.792Z,95940.27
2018-08-11T07:57:31.493Z,95934.57
2018-08-11T08:00:00.106Z,95931.77
2018-08-11T08:02:28.747Z,95921.70
2018-08-11T08:04:57.344Z,95928.00
2018-08-11T08:07:25.968Z,95931.64
2018-08-11T08:09:54.580Z,95928.80
2018-08-11T08:12:23.177Z,95924.96
2018-08-11T08:14:51.845Z,95924.66
2018-08-11T08:17:20.480Z,95915.95
2018-08-11T08:19:49.152Z,95917.47
2018-08-11T08:22:17.747Z,95912.08
2018-08-11T08:24:46.463Z,95918.20
2018-08-11T08:27:15.170Z,95920.80
2018-08-11T08:29:43.816Z,95917.73
2018-08-11T08:32:12.441Z,95912.34
2018-08-11T08:34:41.170Z,95915.98
2018-08-11T08:37:09.780Z,95918.27
2018-08-11T08:39:38.457Z,95773.28
2018-08-11T08:42:07.046Z,95908.41
2018-08-11T08:44:35.712Z,95902.98
2018-08-11T08:47:04.364Z,95911.62
2018-08-11T08:49:33.106Z,95906.54
2018-08-11T08:52:01.722Z,95898.39
2018-08-11T08:54:30.358Z,95895.59
2018-08-11T08:56:59.236Z,95895.83
2018-08-11T08:59:27.911Z,95906.25
2018-08-11T09:01:56.537Z,95894.61
2018-08-11T09:04:25.152Z,95895.09
2018-08-11T09:06:53.785Z,95897.67
2018-08-11T09:09:22.390Z,95893.70
2018-08-11T09:11:50.988Z,95888.70
2018-08-11T09:14:19.844Z,95879.03
2018-08-11T09:16:48.509Z,95878.52
2018-08-11T09:19:17.128Z,95876.12
2018-08-11T09:21:45.730Z,95873.48
2018-08-11T09:24:14.400Z,95866.23
2018-08-11T09:26:43.036Z,95865.34
2018-08-11T09:29:11.765Z,95860.47
2018-08-11T09:31:40.466Z,95858.55
2018-08-11T09:34:09.095Z,95848.45
2018-08-11T09:36:37.723Z,95852.69
2018-08-11T09:39:08.530Z,95852.23
2018-08-11T09:41:37.174Z,95848.94
2018-08-11T09:44:05.873Z,95845.27
2018-08-11T09:46:34.521Z,95837.33
2018-08-11T09:49:03.135Z,95838.02
2018-08-11T09:51:31.827Z,95833.55
2018-08-11T09:54:00.544Z,95835.82
2018-08-11T09:56:29.146Z,95833.94
2018-08-11T09:58:57.817Z,95829.02
2018-08-11T10:01:31.454Z,95826.55
2018-08-11T10:04:00.096Z,95825.98
2018-08-11T10:06:28.753Z,95821.34
2018-08-11T10:08:57.474Z,95814.96
2018-08-11T10:11:26.178Z,95814.66
2018-08-11T10:13:54.758Z,95815.81
2018-08-11T10:16:23.387Z,95815.71
2018-08-11T10:18:52.075Z,95810.81
2018-08-11T10:21:20.691Z,95803.18
2018-08-11T10:23:49.689Z,95816.81
2018-08-11T10:26:18.295Z,95815.45
2018-08-11T10:28:46.931Z,95811.63
2018-08-11T10:31:15.575Z,95802.34
2018-08-11T10:33:44.174Z,95811.86
2018-08-11T10:36:12.794Z,95799.17
2018-08-11T10:38:41.447Z,95808.30
2018-08-11T10:41:10.044Z,95800.73
2018-08-11T10:43:38.731Z,95805.12
2018-08-11T10:46:07.328Z,95802.89
2018-08-11T10:48:35.939Z,95791.69
2018-08-11T10:51:04.559Z,95789.91
2018-08-11T10:53:33.174Z,95789.03
2018-08-11T10:56:01.748Z,95779.39
2018-08-11T10:58:30.377Z,95778.93
2018-08-11T11:00:59.030Z,95783.56
2018-08-11T11:03:27.687Z,95777.47
2018-08-11T11:05:56.314Z,95776.63
2018-08-11T11:08:24.951Z,95772.19
2018-08-11T11:10:53.584Z,95768.84
2018-08-11T11:13:22.179Z,95760.92
2018-08-11T11:15:50.814Z,95764.34
2018-08-11T11:18:19.414Z,95760.72
2018-08-11T11:20:48.054Z,95762.91
2018-08-11T11:23:16.743Z,95763.52
2018-08-11T11:25:45.380Z,95751.76
2018-08-11T11:28:14.011Z,95773.06
2018-08-11T11:30:42.637Z,95756.93
2018-08-11T11:33:11.271Z,95762.78
2018-08-11T11:35:39.958Z,95770.68
2018-08-11T11:38:08.626Z,95757.63
2018-08-11T11:40:37.245Z,95753.91
2018-08-11T11:43:05.926Z,95750.91
2018-08-11T11:45:34.559Z,95754.55
2018-08-11T11:48:03.159Z,95742.16
2018-08-11T11:50:31.731Z,95738.84
2018-08-11T11:53:00.425Z,95751.30
2018-08-11T11:55:29.062Z,95732.25
2018-08-11T11:57:57.861Z,95739.94
2018-08-11T12:00:26.536Z,95729.46
2018-08-11T12:02:55.135Z,95723.45
2018-08-11T12:05:23.782Z,95728.92
2018-08-11T12:07:52.381Z,95728.30
2018-08-11T12:10:21.051Z,95723.33
2018-08-11T12:12:49.927Z,95722.69
2018-08-11T12:15:18.539Z,95724.41
2018-08-11T12:17:47.132Z,95727.71
2018-08-11T12:20:15.781Z,95718.30
2018-08-11T12:22:44.496Z,95718.70
2018-08-11T12:25:13.158Z,95719.67
2018-08-11T12:27:41.816Z,95713.95
2018-08-11T12:30:11.232Z,95702.34
2018-08-11T12:32:39.984Z,95700.89
2018-08-11T12:35:08.643Z,95706.00
2018-08-11T12:37:37.431Z,95694.35
2018-08-11T12:40:06.268Z,95691.81
2018-08-11T12:42:34.903Z,95699.19
2018-08-11T12:45:03.541Z,95687.20
2018-08-11T12:47:32.218Z,95690.20
2018-08-11T12:50:00.899Z,95675.12
2018-08-11T12:52:29.548Z,95672.41
2018-08-11T12:54:58.159Z,95670.71
2018-08-11T12:57:26.787Z,95676.86
2018-08-11T12:59:55.405Z,95686.23
2018-08-11T13:02:24.008Z,95683.23
2018-08-11T13:04:52.662Z,95679.58
2018-08-11T13:07:21.305Z,95681.32
2018-08-11T13:09:49.971Z,95677.59
2018-08-11T13:12:18.632Z,95677.09
2018-08-11T13:14:47.256Z,95670.92
2018-08-11T13:17:15.984Z,95670.44
2018-08-11T13:19:44.627Z,95669.84
2018-08-11T13:22:13.598Z,95667.41
2018-08-11T13:24:42.211Z,95671.02
2018-08-11T13:27:10.909Z,95661.47
2018-08-11T13:29:39.535Z,95660.67
2018-08-11T13:32:08.170Z,95667.20
2018-08-11T13:34:36.795Z,95664.56
2018-08-11T13:37:05.483Z,95653.17
2018-08-11T13:39:34.121Z,95662.74
2018-08-11T13:42:02.792Z,95644.34
2018-08-11T13:44:31.430Z,95656.91
2018-08-11T13:47:00.065Z,95649.98
2018-08-11T13:49:28.740Z,95654.75
2018-08-11T13:51:57.378Z,95653.57
2018-08-11T13:54:26.097Z,95655.13
2018-08-11T13:56:54.654Z,95649.73
2018-08-11T13:59:23.285Z,95645.14
2018-08-11T14:01:51.998Z,95648.41
2018-08-11T14:04:20.647Z,95648.16
2018-08-11T14:06:49.318Z,95636.84
2018-08-11T14:09:17.958Z,95636.42
2018-08-11T14:11:46.603Z,95628.84
2018-08-11T14:14:15.262Z,95634.98
2018-08-11T14:16:43.867Z,95638.86
2018-08-11T14:19:12.467Z,95639.93
2018-08-11T14:21:41.110Z,95634.46
2018-08-11T14:24:09.760Z,95642.08
2018-08-11T14:26:38.400Z,95632.35
2018-08-11T14:29:07.087Z,95643.38
2018-08-11T14:31:35.782Z,95634.27
2018-08-11T14:34:04.439Z,95640.59
2018-08-11T14:36:33.047Z,95629.95
2018-08-11T14:39:01.706Z,95627.89
2018-08-11T14:41:30.315Z,95626.61
2018-08-11T14:43:58.971Z,95625.41
2018-08-11T14:46:27.893Z,95620.16
2018-08-11T14:48:56.512Z,95619.98
2018-08-11T14:51:25.114Z,95618.30
2018-08-11T14:53:53.759Z,95622.53
2018-08-11T14:56:22.401Z,95613.58
2018-08-11T14:58:51.004Z,95613.54
2018-08-11T15:01:19.654Z,95613.52
2018-08-11T15:03:48.356Z,95610.14
2018-08-11T15:06:16.943Z,95622.53
2018-08-11T15:08:45.646Z,95625.83
2018-08-11T15:11:14.371Z,95624.28
2018-08-11T15:13:43.010Z,95624.64
2018-08-11T15:16:11.643Z,95637.38
2018-08-11T15:18:40.314Z,95638.58
2018-08-11T15:21:08.937Z,95633.22
2018-08-11T15:23:37.590Z,95639.39
2018-08-11T15:26:06.289Z,95633.95
2018-08-11T15:28:34.991Z,95632.17
2018-08-11T15:31:03.894Z,95631.28
2018-08-11T15:33:32.819Z,95628.89
2018-08-11T15:36:01.581Z,95629.90
2018-08-11T15:38:30.314Z,95624.02
2018-08-11T15:40:59.268Z,95620.17
2018-08-11T15:43:27.883Z,95621.88
2018-08-11T15:45:56.662Z,95630.31
2018-08-11T15:48:25.363Z,95632.68
2018-08-11T15:50:54.050Z,95634.28
2018-08-11T15:53:22.776Z,95637.23
2018-08-11T15:55:51.766Z,95638.78
2018-08-11T15:58:20.462Z,95642.63
2018-08-11T16:00:49.190Z,95638.88
2018-08-11T16:03:17.839Z,95642.64
2018-08-11T16:05:46.489Z,95638.20
2018-08-11T16:08:15.355Z,95642.89
2018-08-11T16:10:43.994Z,95643.36
2018-08-11T16:13:12.679Z,95644.30
2018-08-11T16:15:41.271Z,95643.36
2018-08-11T16:18:09.931Z,95644.39
2018-08-11T16:20:39.370Z,95646.61
2018-08-11T16:23:08.007Z,95643.09
2018-08-11T16:25:36.627Z,95639.24
2018-08-11T16:28:05.639Z,95647.98
2018-08-11T16:30:34.283Z,95648.20
2018-08-11T16:33:02.866Z,95644.59
2018-08-11T16:35:31.487Z,95646.16
2018-08-11T16:38:00.064Z,95651.63
2018-08-11T16:40:28.951Z,95651.98
2018-08-11T16:42:57.514Z,95649.03
2018-08-11T16:45:26.174Z,95645.20
2018-08-11T16:47:54.779Z,95650.26
2018-08-11T16:50:23.509Z,95650.30
2018-08-11T16:52:52.166Z,95645.08
2018-08-11T16:55:20.819Z,95649.38
2018-08-11T16:57:49.503Z,95655.34
2018-08-11T17:00:18.167Z,95658.90
2018-08-11T17:02:46.811Z,95662.45
2018-08-11T17:05:15.438Z,95659.05
2018-08-11T17:07:44.063Z,95664.83
2018-08-11T17:10:12.722Z,95665.56
2018-08-11T17:12:41.379Z,95664.75
2018-08-11T17:15:10.562Z,95672.67
2018-08-11T17:17:39.194Z,95661.13
2018-08-11T17:20:08.461Z,95666.25
2018-08-11T17:22:37.037Z,95673.04
2018-08-11T17:25:05.834Z,95671.24
2018-08-11T17:27:34.914Z,95667.47
2018-08-11T17:30:04.282Z,95672.92
2018-08-11T17:32:33.146Z,95675.98
2018-08-11T17:35:01.892Z,95673.91
2018-08-11T17:37:30.525Z,95678.50
2018-08-11T17:39:59.170Z,95679.59
2018-08-11T17:42:27.743Z,95681.84
2018-08-11T17:44:56.376Z,95693.94
2018-08-11T17:47:24.973Z,95689.16
2018-08-11T17:49:53.662Z,95698.49
2018-08-11T17:52:22.293Z,95706.03
2018-08-11T17:54:50.910Z,95705.66
2018-08-11T17:57:19.510Z,95712.16
2018-08-11T17:59:48.157Z,95704.86
2018-08-11T18:02:16.755Z,95714.66
2018-08-11T18:04:45.386Z,95724.09
2018-08-11T18:07:14.011Z,95717.00
2018-08-11T18:09:42.598Z,95717.37
2018-08-11T18:12:11.327Z,95723.88
2018-08-11T18:14:39.999Z,95724.70
2018-08-11T18:17:08.771Z,95727.67
2018-08-11T18:19:37.383Z,95724.20
2018-08-11T18:22:06.148Z,95723.45
2018-08-11T18:24:34.742Z,95726.20
2018-08-11T18:27:03.369Z,95733.53
2018-08-11T18:29:32.014Z,95734.13
2018-08-11T18:32:00.623Z,95731.75
2018-08-11T18:34:29.177Z,95733.53
2018-08-11T18:36:57.798Z,95729.00
2018-08-11T18:39:26.416Z,95732.95
2018-08-11T18:41:54.983Z,95734.53
2018-08-11T18:44:23.674Z,95736.31
2018-08-11T18:46:52.262Z,95743.61
2018-08-11T18:49:20.922Z,95743.64
2018-08-11T18:51:49.870Z,95746.59
2018-08-11T18:54:18.590Z,95744.06
2018-08-11T18:56:47.233Z,95750.56
2018-08-11T18:59:15.895Z,95750.94
2018-08-11T19:01:44.569Z,95753.88
2018-08-11T19:04:13.586Z,95751.73
2018-08-11T19:06:42.282Z,95754.89
2018-08-11T19:09:12.944Z,95769.05
2018-08-11T19:11:41.882Z,95771.61
2018-08-11T19:14:10.543Z,95776.12
2018-08-11T19:16:39.186Z,95775.12
2018-08-11T19:19:07.833Z,95776.71
2018-08-11T19:21:36.498Z,95773.78
2018-08-11T19:24:05.170Z,95782.62
2018-08-11T19:26:33.838Z,95776.91
2018-08-11T19:29:02.518Z,95771.05
2018-08-11T19:31:31.155Z,95769.67
2018-08-11T19:33:59.773Z,95768.67
2018-08-11T19:36:28.453Z,95770.64
2018-08-11T19:38:57.079Z,95775.17
2018-08-11T19:41:25.723Z,95772.42
2018-08-11T19:43:54.418Z,95774.72
2018-08-11T19:46:23.080Z,95776.30
2018-08-11T19:48:51.659Z,95774.34
2018-08-11T19:51:20.277Z,95774.14
2018-08-11T19:53:48.858Z,95780.61
2018-08-11T19:56:17.467Z,95784.52
2018-08-11T19:58:46.127Z,95775.69
2018-08-11T20:01:15.422Z,95774.30
2018-08-11T20:03:44.118Z,95771.94
2018-08-11T20:06:12.731Z,95771.92
2018-08-11T20:08:42.161Z,95773.67
2018-08-11T20:11:10.828Z,95777.80
2018-08-11T20:13:39.521Z,95779.77
2018-08-11T20:16:08.162Z,95771.30
2018-08-11T20:18:36.754Z,95780.88
2018-08-11T20:21:05.401Z,95774.97
2018-08-11T20:23:34.225Z,95780.84
2018-08-11T20:26:02.933Z,95770.06
2018-08-11T20:28:31.583Z,95770.82
2018-08-11T20:31:00.202Z,95767.53
2018-08-11T20:33:28.942Z,95763.59
2018-08-11T20:35:57.654Z,95769.81
2018-08-11T20:38:26.270Z,95772.20
2018-08-11T20:40:54.972Z,95770.84
2018-08-11T20:43:23.654Z,95770.42
2018-08-11T20:45:52.327Z,95772.17
2018-08-11T20:48:21.005Z,95774.12
2018-08-11T20:50:49.633Z,95778.02
2018-08-11T20:53:18.266Z,95786.67
2018-08-11T20:55:46.886Z,95778.11
2018-08-11T20:58:15.529Z,95778.80
2018-08-11T21:00:44.263Z,95780.52
2018-08-11T21:03:13.473Z,95778.92
2018-08-11T21:05:42.132Z,95775.58
2018-08-11T21:08:10.822Z,95776.58
2018-08-11T21:10:39.473Z,95775.00
2018-08-11T21:13:08.239Z,95776.37
2018-08-11T21:15:36.910Z,95776.36
2018-08-11T21:18:05.549Z,95770.09
2018-08-11T21:20:34.203Z,95773.45
2018-08-11T21:23:02.864Z,95777.38
2018-08-11T21:25:31.508Z,95776.95
2018-08-11T21:28:00.147Z,95780.08
2018-08-11T21:30:28.916Z,95777.08
2018-08-11T21:32:57.508Z,95774.52
2018-08-11T21:35:26.107Z,95775.58
2018-08-11T21:37:54.720Z,95770.05
2018-08-11T21:40:23.326Z,95776.16
2018-08-11T21:42:51.944Z,95777.92
2018-08-11T21:45:20.574Z,95775.31
2018-08-11T21:47:49.792Z,95771.53
2018-08-11T21:50:18.393Z,95769.50
2018-08-11T21:52:47.043Z,95772.02
2018-08-11T21:55:15.726Z,95773.33
2018-08-11T21:57:44.371Z,95775.98
2018-08-11T22:00:34.610Z,95775.94
2018-08-11T22:03:03.430Z,95778.08
2018-08-11T22:05:32.187Z,95778.67
2018-08-11T22:08:01.740Z,95780.21
2018-08-11T22:10:30.668Z,95781.41
2018-08-11T22:12:59.330Z,95778.25
2018-08-11T22:15:28.027Z,95771.68
2018-08-11T22:17:56.663Z,95783.32
2018-08-11T22:20:25.322Z,95777.80
2018-08-11T22:22:53.962Z,95776.81
2018-08-11T22:25:22.625Z,95778.19
2018-08-11T22:27:51.287Z,95773.41
2018-08-11T22:30:19.954Z,95771.23
2018-08-11T22:32:48.674Z,95762.95
2018-08-11T22:35:17.346Z,95761.80
2018-08-11T22:37:45.980Z,95765.91
2018-08-11T22:40:14.680Z,95766.56
2018-08-11T22:42:43.334Z,95758.55
2018-08-11T22:45:12.563Z,95761.73
2018-08-11T22:47:41.255Z,95763.58
2018-08-11T22:50:11.835Z,95758.11
2018-08-11T22:52:40.746Z,95753.46
2018-08-11T22:55:09.614Z,95760.92
2018-08-11T22:57:38.301Z,95754.00
2018-08-11T23:00:15.661Z,95749.27
2018-08-11T23:02:44.703Z,95753.84
2018-08-11T23:05:13.474Z,95752.23
2018-08-11T23:07:42.335Z,95752.39
2018-08-11T23:10:12.822Z,95747.81
2018-08-11T23:12:42.595Z,95756.14
2018-08-11T23:15:13.067Z,95754.18
2018-08-11T23:17:43.095Z,95755.92
2018-08-11T23:20:11.751Z,95755.70
2018-08-11T23:22:40.356Z,95759.80
2018-08-11T23:25:09.714Z,95755.25
2018-08-11T23:27:38.569Z,95756.77
2018-08-11T23:30:09.849Z,95756.67
2018-08-11T23:32:38.922Z,95754.52
2018-08-11T23:35:07.646Z,95761.88
2018-08-11T23:37:36.309Z,95771.37
2018-08-11T23:40:05.890Z,95768.52
2018-08-11T23:42:34.574Z,95765.45
2018-08-11T23:45:03.212Z,95764.20
2018-08-11T23:47:31.883Z,95756.97
2018-08-11T23:50:00.512Z,95764.55
2018-08-11T23:52:29.112Z,95761.80
2018-08-11T23:54:57.816Z,95764.86
2018-08-11T23:57:26.395Z,95769.02
2018-08-11T23:59:55.103Z,95766.96
